Time;durP1;ratioP1;P1;durP2;ratioP2;P2;SDS_P1;SDS_P2;PMS_P1;PMS_P2;Temp;Humidity;BMP_temperature;BMP_pressure;BME280_temperature;BME280_humidity;BME280_pressure;Samples;Min_cycle;Max_cycle;Signal;HPM_P1;HPM_P2
2023/09/15 00:00:23;;;;;;;10.52;4.57;;;13.20;99.90;;;;;;5010886;28;20053;-65
2023/09/15 00:02:51;;;;;;;8.43;4.32;;;13.10;99.90;;;;;;5011206;28;20367;-64
2023/09/15 00:05:18;;;;;;;6.60;4.47;;;13.20;99.90;;;;;;5009206;28;20054;-65
2023/09/15 00:07:45;;;;;;;7.65;4.70;;;13.20;99.90;;;;;;4991754;28;20057;-64
2023/09/15 00:10:11;;;;;;;9.25;5.28;;;13.20;99.90;;;;;;4991305;28;20043;-64
2023/09/15 00:12:40;;;;;;;6.32;4.25;;;13.10;99.90;;;;;;4991476;28;20152;-64
2023/09/15 00:15:10;;;;;;;7.80;4.93;;;13.10;99.90;;;;;;4991657;28;20061;-65
2023/09/15 00:17:39;;;;;;;7.43;4.63;;;13.10;99.90;;;;;;4972386;28;20055;-65
2023/09/15 00:20:14;;;;;;;8.77;4.57;;;13.10;99.90;;;;;;4971596;28;20383;-65
2023/09/15 00:22:41;;;;;;;6.68;4.45;;;13.00;99.90;;;;;;4970895;28;20153;-64
2023/09/15 00:25:09;;;;;;;8.57;4.95;;;13.00;99.90;;;;;;4973148;28;20105;-64
2023/09/15 00:27:38;;;;;;;6.80;4.30;;;13.00;99.90;;;;;;4971766;28;20048;-64
2023/09/15 00:30:04;;;;;;;7.93;4.60;;;12.90;99.90;;;;;;4971623;28;20050;-64
2023/09/15 00:32:31;;;;;;;7.47;4.70;;;13.00;99.90;;;;;;4971672;28;20514;-65
2023/09/15 00:34:57;;;;;;;8.85;4.40;;;12.90;99.90;;;;;;4971685;28;20051;-64
2023/09/15 00:37:23;;;;;;;8.23;4.22;;;13.00;99.90;;;;;;5009153;28;20457;-64
2023/09/15 00:39:49;;;;;;;7.78;4.43;;;13.00;99.90;;;;;;4992547;28;20054;-65
2023/09/15 00:42:18;;;;;;;8.93;4.60;;;12.90;99.90;;;;;;5010465;28;20437;-65
2023/09/15 00:44:45;;;;;;;8.55;5.13;;;13.00;99.90;;;;;;5010577;28;20065;-65
2023/09/15 00:47:11;;;;;;;7.13;4.55;;;12.90;99.90;;;;;;4993473;28;20054;-65
2023/09/15 00:49:37;;;;;;;8.18;4.18;;;12.90;99.90;;;;;;4990020;28;20828;-64
2023/09/15 00:52:05;;;;;;;7.53;4.60;;;12.90;99.90;;;;;;4994878;28;20042;-65
2023/09/15 00:54:32;;;;;;;9.05;4.55;;;12.80;99.90;;;;;;4994763;28;20050;-65
2023/09/15 00:56:59;;;;;;;7.22;4.78;;;12.80;99.90;;;;;;5009640;28;20050;-64
2023/09/15 00:59:26;;;;;;;6.28;4.90;;;12.70;99.90;;;;;;5014259;28;20355;-65
2023/09/15 01:01:53;;;;;;;8.68;5.00;;;12.70;99.90;;;;;;5014277;28;20061;-64
2023/09/15 01:04:20;;;;;;;10.07;5.07;;;12.60;99.90;;;;;;5014159;28;20061;-65
2023/09/15 01:06:50;;;;;;;7.65;4.97;;;12.60;99.90;;;;;;5001040;28;20054;-64
2023/09/15 01:09:16;;;;;;;8.30;5.20;;;12.60;99.90;;;;;;4994284;28;20062;-64
2023/09/15 01:11:43;;;;;;;6.88;5.05;;;12.60;99.90;;;;;;4994791;28;20057;-64
2023/09/15 01:14:09;;;;;;;8.13;4.47;;;12.50;99.90;;;;;;4994396;28;20046;-64
2023/09/15 01:16:46;;;;;;;8.13;5.13;;;12.50;99.90;;;;;;5005799;28;20454;-64
2023/09/15 01:19:37;;;;;;;9.43;5.00;;;12.50;99.90;;;;;;5013744;28;20605;-64
2023/09/15 01:22:10;;;;;;;6.82;4.55;;;12.50;99.90;;;;;;5013986;28;20049;-65
2023/09/15 01:25:12;;;;;;;8.82;5.65;;;12.50;99.90;;;;;;5014044;28;20054;-64
2023/09/15 01:27:44;;;;;;;8.18;4.85;;;12.50;99.90;;;;;;4974735;28;20419;-64
2023/09/15 01:30:11;;;;;;;9.00;5.00;;;12.50;99.90;;;;;;4974167;28;20043;-64
2023/09/15 01:32:38;;;;;;;9.95;4.90;;;12.50;99.90;;;;;;4974362;28;20042;-65
2023/09/15 01:35:04;;;;;;;7.05;4.78;;;12.40;99.90;;;;;;4974606;28;20125;-65
2023/09/15 01:37:31;;;;;;;8.52;4.82;;;12.40;99.90;;;;;;5012444;28;20111;-65
2023/09/15 01:39:59;;;;;;;10.30;4.95;;;12.40;99.90;;;;;;5013165;28;20065;-65
2023/09/15 01:42:26;;;;;;;8.25;4.60;;;12.40;99.90;;;;;;5013607;28;20054;-64
2023/09/15 01:44:54;;;;;;;8.48;4.15;;;12.30;99.90;;;;;;5013772;28;20109;-64
2023/09/15 01:47:22;;;;;;;7.22;4.35;;;12.40;99.90;;;;;;4995437;28;20449;-64
2023/09/15 01:49:51;;;;;;;8.88;5.45;;;12.30;99.90;;;;;;4993445;28;20104;-65
2023/09/15 01:52:20;;;;;;;9.05;5.10;;;12.30;99.90;;;;;;4992728;28;20057;-64
2023/09/15 01:54:48;;;;;;;7.55;4.80;;;12.30;99.90;;;;;;4993328;28;20155;-64
2023/09/15 01:57:15;;;;;;;10.30;5.30;;;12.40;99.90;;;;;;5011858;28;20046;-64
2023/09/15 01:59:41;;;;;;;8.13;5.38;;;12.20;99.90;;;;;;5012542;28;20061;-64
2023/09/15 02:02:07;;;;;;;12.98;5.38;;;12.30;99.90;;;;;;5011875;28;20458;-64
2023/09/15 02:04:33;;;;;;;8.23;5.20;;;12.30;99.90;;;;;;5013261;28;20049;-64
2023/09/15 02:07:00;;;;;;;7.72;5.72;;;12.30;99.90;;;;;;4998241;28;20536;-64
2023/09/15 02:09:26;;;;;;;7.68;5.65;;;12.30;99.90;;;;;;4993285;28;20046;-64
2023/09/15 02:11:52;;;;;;;8.25;5.15;;;12.30;99.90;;;;;;4993916;28;20054;-64
2023/09/15 02:14:18;;;;;;;9.65;5.00;;;12.20;99.90;;;;;;4993466;28;20057;-64
2023/09/15 02:16:45;;;;;;;8.98;5.47;;;12.20;99.90;;;;;;5006322;28;20062;-64
2023/09/15 02:19:12;;;;;;;7.68;5.38;;;12.20;99.90;;;;;;5012799;28;20060;-64
2023/09/15 02:21:38;;;;;;;7.15;4.90;;;12.20;99.90;;;;;;5013446;28;20111;-64
2023/09/15 02:24:05;;;;;;;10.05;5.60;;;12.20;99.90;;;;;;5013314;28;20076;-64
2023/09/15 02:26:32;;;;;;;8.90;5.95;;;12.20;99.90;;;;;;5002407;28;20121;-64
2023/09/15 02:28:58;;;;;;;6.65;5.50;;;12.20;99.90;;;;;;4993232;28;20442;-64
2023/09/15 02:31:25;;;;;;;8.50;5.47;;;12.10;99.90;;;;;;4992760;28;20050;-64
2023/09/15 02:33:51;;;;;;;7.78;5.70;;;12.00;99.90;;;;;;4993043;28;20113;-64
2023/09/15 02:36:18;;;;;;;8.15;5.13;;;12.10;99.90;;;;;;5001242;28;20057;-65
2023/09/15 02:38:44;;;;;;;12.00;5.50;;;12.00;99.90;;;;;;5012499;28;20042;-64
2023/09/15 02:41:10;;;;;;;10.00;5.20;;;12.10;99.90;;;;;;5012093;28;20071;-64
2023/09/15 02:43:36;;;;;;;5.97;5.00;;;12.00;99.90;;;;;;5011847;28;20061;-64
2023/09/15 02:46:04;;;;;;;8.73;5.78;;;11.90;99.90;;;;;;5005283;28;20054;-64
2023/09/15 02:48:30;;;;;;;7.93;5.38;;;12.00;99.90;;;;;;4992396;28;20355;-64
2023/09/15 02:50:58;;;;;;;12.90;6.13;;;11.90;99.90;;;;;;4992247;28;20108;-64
2023/09/15 02:53:24;;;;;;;8.32;5.50;;;11.80;99.90;;;;;;4992599;28;20046;-64
2023/09/15 02:55:55;;;;;;;8.80;5.40;;;11.90;99.90;;;;;;4997155;28;20042;-64
2023/09/15 02:58:22;;;;;;;7.68;5.43;;;11.90;99.90;;;;;;5011882;28;20058;-64
2023/09/15 03:00:48;;;;;;;9.77;5.05;;;11.80;99.90;;;;;;5011679;28;20086;-64
2023/09/15 03:03:14;;;;;;;8.90;5.20;;;11.80;99.90;;;;;;5011742;28;20363;-64
2023/09/15 03:05:41;;;;;;;8.35;4.95;;;11.80;99.90;;;;;;5008208;28;20096;-65
2023/09/15 03:08:07;;;;;;;7.38;5.35;;;11.70;99.90;;;;;;4992521;28;20050;-65
2023/09/15 03:10:36;;;;;;;7.75;4.38;;;11.80;99.90;;;;;;4991871;28;20415;-64
2023/09/15 03:13:04;;;;;;;9.60;5.57;;;11.80;99.90;;;;;;4992061;28;20042;-64
2023/09/15 03:15:30;;;;;;;9.75;5.35;;;11.70;99.90;;;;;;4994022;28;20113;-64
2023/09/15 03:17:56;;;;;;;7.97;4.90;;;11.80;99.90;;;;;;5012041;28;20046;-65
2023/09/15 03:20:22;;;;;;;8.55;5.47;;;11.80;99.90;;;;;;5011453;28;20077;-64
2023/09/15 03:22:51;;;;;;;6.43;5.20;;;11.80;99.90;;;;;;5012114;28;20050;-64
2023/09/15 03:25:17;;;;;;;8.32;5.63;;;11.80;99.90;;;;;;5010930;28;20108;-64
2023/09/15 03:27:44;;;;;;;7.43;5.40;;;11.80;99.90;;;;;;4991713;28;20061;-64
2023/09/15 03:30:11;;;;;;;7.90;5.32;;;11.70;99.90;;;;;;4990863;28;20443;-63
2023/09/15 03:32:37;;;;;;;7.80;5.03;;;11.70;99.90;;;;;;4992412;28;20470;-64
2023/09/15 03:35:07;;;;;;;8.93;5.30;;;11.70;99.90;;;;;;4991628;28;20054;-64
2023/09/15 03:37:33;;;;;;;8.23;5.60;;;11.70;99.90;;;;;;5009497;28;20076;-64
2023/09/15 03:39:59;;;;;;;8.00;5.40;;;11.70;99.90;;;;;;5010935;28;20525;-64
2023/09/15 03:42:26;;;;;;;8.18;5.38;;;11.70;99.90;;;;;;5011612;28;20331;-64
2023/09/15 03:44:52;;;;;;;10.88;5.95;;;11.70;99.90;;;;;;5010962;28;20466;-64
2023/09/15 03:47:18;;;;;;;9.68;5.57;;;11.70;99.90;;;;;;4994612;28;20038;-64
2023/09/15 03:49:44;;;;;;;10.75;5.70;;;11.60;99.90;;;;;;4991513;28;20120;-64
2023/09/15 03:52:10;;;;;;;8.23;5.38;;;11.60;99.90;;;;;;4992335;28;20061;-64
2023/09/15 03:54:37;;;;;;;9.25;5.43;;;11.50;99.90;;;;;;4991159;28;20173;-64
2023/09/15 03:57:05;;;;;;;8.35;5.75;;;11.60;99.90;;;;;;5005283;28;20156;-64
2023/09/15 03:59:31;;;;;;;7.47;5.40;;;11.60;99.90;;;;;;5010614;28;20116;-65
2023/09/15 04:01:57;;;;;;;7.68;5.78;;;11.60;99.90;;;;;;5011100;28;20415;-64
2023/09/15 04:04:23;;;;;;;8.48;5.55;;;11.60;99.90;;;;;;5010823;28;20115;-64
2023/09/15 04:06:50;;;;;;;7.93;5.80;;;11.60;99.90;;;;;;4998317;28;20061;-64
2023/09/15 04:09:16;;;;;;;9.65;5.60;;;11.60;99.90;;;;;;4991243;28;20058;-65
2023/09/15 04:11:43;;;;;;;7.43;5.72;;;11.60;99.90;;;;;;4991677;28;20042;-64
2023/09/15 04:14:09;;;;;;;11.73;5.65;;;11.50;99.90;;;;;;4991337;28;20053;-64
2023/09/15 04:16:37;;;;;;;11.70;5.45;;;11.50;99.90;;;;;;5001610;28;20053;-64
2023/09/15 04:19:04;;;;;;;7.40;5.07;;;11.50;99.90;;;;;;5010767;28;20050;-64
2023/09/15 04:21:30;;;;;;;7.85;5.50;;;11.40;99.90;;;;;;5011265;28;20046;-64
2023/09/15 04:23:56;;;;;;;8.02;5.57;;;11.50;99.90;;;;;;5011360;28;20168;-64
2023/09/15 04:26:23;;;;;;;7.57;5.65;;;11.50;99.90;;;;;;5005308;28;20054;-64
2023/09/15 04:28:49;;;;;;;8.50;5.43;;;11.40;99.90;;;;;;4994940;28;20375;-64
2023/09/15 04:31:15;;;;;;;8.68;5.40;;;11.40;99.90;;;;;;4994998;28;20502;-64
2023/09/15 04:33:41;;;;;;;8.15;5.60;;;11.40;99.90;;;;;;4995377;28;20164;-64
2023/09/15 04:36:08;;;;;;;7.22;5.45;;;11.40;99.90;;;;;;5001299;28;20049;-64
2023/09/15 04:38:34;;;;;;;8.20;5.45;;;11.40;99.90;;;;;;5015008;28;20469;-64
2023/09/15 04:41:00;;;;;;;7.93;5.40;;;11.50;99.90;;;;;;5014516;28;20060;-64
2023/09/15 04:43:29;;;;;;;11.57;5.68;;;11.40;99.90;;;;;;5014836;28;20459;-64
2023/09/15 04:45:56;;;;;;;7.57;5.43;;;11.40;99.90;;;;;;5009752;28;20375;-64
2023/09/15 04:48:23;;;;;;;8.63;6.03;;;11.40;99.90;;;;;;4994999;28;20058;-64
2023/09/15 04:50:49;;;;;;;9.93;5.85;;;11.50;99.90;;;;;;4994115;28;20050;-64
2023/09/15 04:53:15;;;;;;;7.97;4.75;;;11.40;99.90;;;;;;4995214;28;20366;-64
2023/09/15 04:55:42;;;;;;;7.85;5.50;;;11.30;99.90;;;;;;4997342;28;20050;-64
2023/09/15 04:58:08;;;;;;;6.35;5.38;;;11.30;99.90;;;;;;5014054;28;20065;-64
2023/09/15 05:00:34;;;;;;;7.65;6.20;;;11.40;99.90;;;;;;5014042;28;20072;-64
2023/09/15 05:03:02;;;;;;;6.07;5.28;;;11.40;99.90;;;;;;5010940;28;20070;-64
2023/09/15 05:05:28;;;;;;;9.43;5.68;;;11.40;99.90;;;;;;4994646;28;20054;-65
2023/09/15 05:07:56;;;;;;;8.95;5.35;;;11.40;99.90;;;;;;4994104;28;20125;-65
2023/09/15 05:10:22;;;;;;;6.93;5.78;;;11.30;99.90;;;;;;4973953;28;20451;-64
2023/09/15 05:12:49;;;;;;;9.65;5.65;;;11.30;99.90;;;;;;4992672;28;20054;-64
2023/09/15 05:15:15;;;;;;;10.10;5.97;;;11.30;99.90;;;;;;4993386;28;20043;-64
2023/09/15 05:17:41;;;;;;;8.95;6.20;;;11.30;99.90;;;;;;4976133;28;20050;-64
2023/09/15 05:20:08;;;;;;;8.30;5.90;;;11.20;99.90;;;;;;4975072;28;20047;-64
2023/09/15 05:22:34;;;;;;;10.07;5.72;;;11.20;99.90;;;;;;4994174;28;20422;-64
2023/09/15 05:25:04;;;;;;;8.73;6.00;;;11.10;99.90;;;;;;4994554;28;20064;-64
2023/09/15 05:27:34;;;;;;;8.30;6.10;;;11.10;99.90;;;;;;4977801;28;20058;-64
2023/09/15 05:30:00;;;;;;;10.05;5.72;;;11.10;99.90;;;;;;4974285;28;20407;-64
2023/09/15 05:32:26;;;;;;;7.70;6.15;;;11.20;99.90;;;;;;4994114;28;20109;-65
2023/09/15 05:34:53;;;;;;;8.57;6.45;;;11.10;99.90;;;;;;4994054;28;20508;-65
2023/09/15 05:37:19;;;;;;;6.90;6.05;;;11.10;99.90;;;;;;4993552;28;20050;-65
2023/09/15 05:39:45;;;;;;;10.02;6.78;;;11.20;99.90;;;;;;4992763;28;20058;-65
2023/09/15 05:42:11;;;;;;;8.13;6.18;;;11.20;99.90;;;;;;4993387;28;20054;-65
2023/09/15 05:44:38;;;;;;;10.00;6.35;;;11.20;99.90;;;;;;4994007;28;20054;-65
2023/09/15 05:47:04;;;;;;;7.57;5.95;;;11.30;99.90;;;;;;4994132;28;20060;-65
2023/09/15 05:49:30;;;;;;;10.93;6.50;;;11.40;99.90;;;;;;4975790;28;20363;-65
2023/09/15 05:51:57;;;;;;;9.82;6.28;;;11.70;99.90;;;;;;4993129;28;20050;-64
2023/09/15 05:54:25;;;;;;;9.88;6.38;;;12.00;99.90;;;;;;4992840;28;20057;-64
2023/09/15 05:56:51;;;;;;;11.30;6.20;;;12.50;99.90;;;;;;4993809;28;20431;-65
2023/09/15 05:59:17;;;;;;;10.52;6.85;;;12.90;99.90;;;;;;4991607;28;20074;-64
2023/09/15 06:01:46;;;;;;;7.70;6.72;;;13.20;99.90;;;;;;4993286;28;20082;-64
2023/09/15 06:04:16;;;;;;;9.65;6.25;;;13.60;99.90;;;;;;4993683;28;20054;-65
2023/09/15 06:06:42;;;;;;;8.73;6.20;;;13.90;99.90;;;;;;4993323;28;20439;-65
2023/09/15 06:09:09;;;;;;;7.82;6.00;;;14.10;99.90;;;;;;4991113;28;20050;-65
2023/09/15 06:11:35;;;;;;;8.02;5.40;;;14.30;99.90;;;;;;4961511;28;20133;-64
2023/09/15 06:14:01;;;;;;;8.10;5.63;;;14.50;99.90;;;;;;4990320;28;20104;-65
2023/09/15 06:16:28;;;;;;;7.78;5.70;;;14.60;99.90;;;;;;4973816;28;20125;-65
2023/09/15 06:18:54;;;;;;;7.93;6.28;;;14.80;99.90;;;;;;4972766;28;20058;-65
2023/09/15 06:21:27;;;;;;;8.20;5.80;;;14.80;99.90;;;;;;4975362;28;20054;-64
2023/09/15 06:23:53;;;;;;;10.48;6.18;;;15.00;99.90;;;;;;4973533;28;20472;-65
2023/09/15 06:26:19;;;;;;;10.85;5.65;;;15.00;99.90;;;;;;4981915;28;20050;-65
2023/09/15 06:28:46;;;;;;;8.77;5.40;;;15.00;99.90;;;;;;4992078;28;20042;-65
2023/09/15 06:31:12;;;;;;;7.88;5.95;;;15.10;99.90;;;;;;4993260;28;20423;-65
2023/09/15 06:33:38;;;;;;;7.63;5.22;;;15.20;99.90;;;;;;4992975;28;20042;-64
2023/09/15 06:36:04;;;;;;;8.75;5.32;;;15.30;99.90;;;;;;4992155;28;20054;-65
2023/09/15 06:38:34;;;;;;;7.75;5.72;;;15.40;99.90;;;;;;4987893;28;20062;-64
2023/09/15 06:41:00;;;;;;;8.57;5.75;;;15.50;99.90;;;;;;4992360;28;20467;-64
2023/09/15 06:43:26;;;;;;;9.02;5.88;;;15.70;99.90;;;;;;4992431;28;20054;-65
2023/09/15 06:45:53;;;;;;;7.00;5.60;;;15.90;99.90;;;;;;4992812;28;20050;-64
2023/09/15 06:48:19;;;;;;;9.40;5.53;;;15.70;99.90;;;;;;4991535;28;20100;-65
2023/09/15 06:50:45;;;;;;;10.23;5.90;;;15.60;99.90;;;;;;4992958;28;20105;-64
2023/09/15 06:53:13;;;;;;;7.60;5.95;;;15.60;99.90;;;;;;4991605;28;20117;-64
2023/09/15 06:55:40;;;;;;;6.88;5.55;;;15.20;99.90;;;;;;4980534;28;20046;-65
2023/09/15 06:58:07;;;;;;;7.07;5.03;;;15.20;99.90;;;;;;4995187;28;20126;-65
2023/09/15 07:00:33;;;;;;;8.65;6.00;;;15.00;99.90;;;;;;4993144;28;20113;-64
2023/09/15 07:02:59;;;;;;;7.43;5.78;;;14.90;99.90;;;;;;5004298;28;20053;-64
2023/09/15 07:05:26;;;;;;;10.48;5.82;;;14.80;99.90;;;;;;5012949;28;20041;-64
2023/09/15 07:07:52;;;;;;;6.68;5.32;;;14.80;99.90;;;;;;5010636;28;20043;-65
2023/09/15 07:10:18;;;;;;;11.73;5.82;;;14.80;99.90;;;;;;5010730;28;20046;-65
2023/09/15 07:12:45;;;;;;;9.10;5.85;;;14.90;99.90;;;;;;4992766;28;20054;-65
2023/09/15 07:15:13;;;;;;;9.05;5.28;;;15.10;99.90;;;;;;4992856;28;20404;-65
2023/09/15 07:17:40;;;;;;;10.50;5.70;;;15.20;99.90;;;;;;5009362;28;20053;-65
2023/09/15 07:20:07;;;;;;;7.93;5.65;;;15.30;99.90;;;;;;5012384;28;20050;-65
2023/09/15 07:22:33;;;;;;;9.35;5.53;;;15.40;99.90;;;;;;5011979;28;20347;-65
2023/09/15 07:24:59;;;;;;;8.50;4.50;;;15.60;99.90;;;;;;5012132;28;20351;-65
2023/09/15 07:27:25;;;;;;;10.73;5.30;;;15.60;99.90;;;;;;4998174;28;20054;-64
2023/09/15 07:29:51;;;;;;;8.45;5.07;;;15.80;99.90;;;;;;5011246;28;20124;-64
2023/09/15 07:32:18;;;;;;;9.73;5.10;;;15.80;99.90;;;;;;5011815;28;20458;-65
2023/09/15 07:34:44;;;;;;;7.97;5.20;;;15.90;99.90;;;;;;5011754;28;20061;-65
2023/09/15 07:37:10;;;;;;;8.85;5.07;;;15.90;99.90;;;;;;4997869;28;20073;-64
2023/09/15 07:39:37;;;;;;;8.50;5.32;;;16.20;99.90;;;;;;4991751;28;20120;-64
2023/09/15 07:42:07;;;;;;;9.00;5.13;;;16.20;99.90;;;;;;4991321;28;20065;-65
2023/09/15 07:44:33;;;;;;;7.57;5.35;;;16.20;99.90;;;;;;4992160;28;20055;-64
2023/09/15 07:46:59;;;;;;;7.95;4.60;;;16.30;99.90;;;;;;4993507;28;20050;-64
2023/09/15 07:49:26;;;;;;;6.43;5.00;;;16.30;99.90;;;;;;4992645;28;20109;-64
2023/09/15 07:51:52;;;;;;;7.40;5.25;;;16.40;99.90;;;;;;4992704;28;20057;-64
2023/09/15 07:54:19;;;;;;;8.43;5.20;;;16.50;99.90;;;;;;4992474;28;20046;-65
2023/09/15 07:56:45;;;;;;;8.10;4.50;;;16.60;99.90;;;;;;5001767;28;20374;-64
2023/09/15 07:59:13;;;;;;;6.90;4.78;;;16.70;99.90;;;;;;5011528;28;20375;-64
2023/09/15 08:01:39;;;;;;;9.77;4.90;;;16.80;99.90;;;;;;5008626;28;20439;-65
2023/09/15 08:04:06;;;;;;;8.05;4.75;;;16.90;99.90;;;;;;4975034;28;20055;-65
2023/09/15 08:06:32;;;;;;;8.32;4.82;;;17.00;99.90;;;;;;4976259;28;20486;-64
2023/09/15 08:08:58;;;;;;;8.27;4.45;;;17.00;99.90;;;;;;4975742;28;20383;-64
2023/09/15 08:11:34;;;;;;;5.88;4.78;;;17.10;99.90;;;;;;4975047;28;20116;-63
2023/09/15 08:14:01;;;;;;;8.75;4.93;;;17.30;99.90;;;;;;4991759;28;20050;-64
2023/09/15 08:16:27;;;;;;;8.10;4.95;;;17.30;99.90;;;;;;4992020;28;20050;-64
2023/09/15 08:18:53;;;;;;;10.43;4.93;;;17.30;99.90;;;;;;4991212;28;20042;-64
2023/09/15 08:21:19;;;;;;;8.40;4.68;;;17.40;99.90;;;;;;4991445;28;20367;-64
2023/09/15 08:23:46;;;;;;;6.82;4.57;;;17.50;99.90;;;;;;4991292;28;20061;-64
2023/09/15 08:26:12;;;;;;;12.75;5.60;;;17.50;99.90;;;;;;4991514;28;20050;-64
2023/09/15 08:28:38;;;;;;;10.05;5.50;;;17.60;99.90;;;;;;4990712;28;20112;-64
2023/09/15 08:31:05;;;;;;;9.18;5.47;;;17.90;99.90;;;;;;4990829;28;20054;-64
2023/09/15 08:33:31;;;;;;;6.80;4.90;;;17.90;99.90;;;;;;4991790;28;20058;-65
2023/09/15 08:35:58;;;;;;;9.35;5.07;;;18.00;99.90;;;;;;4991852;28;20070;-64
2023/09/15 08:38:25;;;;;;;6.45;4.60;;;18.10;99.90;;;;;;4990453;28;20347;-64
2023/09/15 08:40:59;;;;;;;7.72;3.92;;;18.20;99.90;;;;;;4991142;28;20054;-64
2023/09/15 08:43:25;;;;;;;6.15;4.22;;;18.30;99.90;;;;;;4991399;28;20080;-64
2023/09/15 08:45:53;;;;;;;7.50;4.07;;;18.50;99.90;;;;;;4993464;28;20855;-64
2023/09/15 08:48:26;;;;;;;7.00;4.30;;;18.60;99.90;;;;;;5010433;28;20042;-64
2023/09/15 08:50:54;;;;;;;5.82;4.28;;;18.60;99.90;;;;;;5010751;28;20053;-62
2023/09/15 08:53:21;;;;;;;6.28;4.13;;;18.60;99.90;;;;;;5010685;28;20050;-64
2023/09/15 08:55:47;;;;;;;7.97;4.10;;;18.80;99.90;;;;;;5008569;28;20046;-65
2023/09/15 08:58:14;;;;;;;5.13;4.10;;;18.70;99.90;;;;;;4990687;28;20085;-64
2023/09/15 09:00:42;;;;;;;5.85;3.58;;;18.90;99.90;;;;;;4991315;28;20050;-64
2023/09/15 09:03:12;;;;;;;6.20;3.38;;;18.90;99.90;;;;;;5005394;28;20481;-64
2023/09/15 09:05:40;;;;;;;8.75;3.85;;;19.00;99.90;;;;;;5010144;28;20057;-64
2023/09/15 09:08:09;;;;;;;5.47;3.20;;;19.10;99.90;;;;;;4990542;28;20352;-64
2023/09/15 09:10:35;;;;;;;8.15;3.75;;;19.10;99.90;;;;;;4991342;28;20090;-64
2023/09/15 09:13:02;;;;;;;6.13;3.30;;;19.30;99.90;;;;;;4995386;28;20076;-64
2023/09/15 09:15:32;;;;;;;7.32;3.50;;;19.30;99.90;;;;;;4994776;28;20066;-64
2023/09/15 09:17:58;;;;;;;10.48;3.85;;;19.40;99.90;;;;;;4995706;28;20105;-64
2023/09/15 09:20:28;;;;;;;7.80;3.65;;;19.40;99.90;;;;;;5014612;28;20156;-64
2023/09/15 09:22:54;;;;;;;6.47;3.42;;;19.60;99.90;;;;;;5014502;28;20048;-65
2023/09/15 09:25:33;;;;;;;5.93;3.13;;;19.50;99.90;;;;;;5014041;28;20442;-64
2023/09/15 09:28:00;;;;;;;7.10;3.42;;;19.50;99.90;;;;;;4994759;28;20157;-64
2023/09/15 09:30:29;;;;;;;7.90;3.22;;;19.70;99.90;;;;;;4994553;28;20328;-65
2023/09/15 09:32:56;;;;;;;6.65;3.33;;;19.80;99.90;;;;;;4994695;28;20122;-65
2023/09/15 09:35:23;;;;;;;6.03;3.30;;;19.80;99.90;;;;;;4994495;28;20121;-64
2023/09/15 09:37:51;;;;;;;5.80;2.92;;;19.70;99.90;;;;;;5010550;28;20072;-64
2023/09/15 09:40:18;;;;;;;6.03;2.85;;;19.90;99.90;;;;;;4978584;28;20346;-64
2023/09/15 09:42:45;;;;;;;5.80;2.97;;;20.00;99.90;;;;;;4993252;28;20109;-64
2023/09/15 09:45:12;;;;;;;8.38;2.92;;;20.10;99.90;;;;;;4971145;28;20046;-64
2023/09/15 09:47:38;;;;;;;7.00;3.42;;;20.10;99.90;;;;;;4993600;28;20050;-64
2023/09/15 09:50:06;;;;;;;5.20;2.72;;;20.20;99.90;;;;;;4993425;28;20366;-64
2023/09/15 09:52:33;;;;;;;4.32;2.75;;;20.10;99.90;;;;;;4994169;28;20054;-65
2023/09/15 09:55:09;;;;;;;6.70;3.42;;;20.20;99.90;;;;;;4994429;28;20042;-64
2023/09/15 09:57:39;;;;;;;5.90;3.42;;;20.20;99.90;;;;;;4993871;28;20065;-65
2023/09/15 10:00:09;;;;;;;4.10;3.05;;;20.30;99.90;;;;;;4994142;28;20455;-64
2023/09/15 10:02:37;;;;;;;5.35;3.47;;;20.40;99.90;;;;;;5004326;28;20054;-64
2023/09/15 10:05:04;;;;;;;5.82;3.38;;;20.40;99.90;;;;;;5013580;28;20046;-64
2023/09/15 10:07:30;;;;;;;6.93;3.22;;;20.60;99.90;;;;;;4998026;28;20077;-65
2023/09/15 10:09:58;;;;;;;7.57;4.00;;;20.60;99.90;;;;;;4994217;28;20093;-64
2023/09/15 10:12:25;;;;;;;5.80;3.35;;;20.60;99.90;;;;;;4994290;28;20312;-62
2023/09/15 10:14:52;;;;;;;7.03;3.40;;;20.60;99.90;;;;;;4993492;28;20469;-62
2023/09/15 10:17:19;;;;;;;6.78;3.63;;;20.50;99.90;;;;;;5006614;28;20046;-64
2023/09/15 10:19:48;;;;;;;6.28;4.20;;;20.60;99.90;;;;;;5013099;28;20112;-64
2023/09/15 10:22:18;;;;;;;6.13;4.32;;;20.50;99.90;;;;;;5012980;28;20045;-65
2023/09/15 10:24:47;;;;;;;6.88;4.20;;;20.60;99.90;;;;;;5012943;28;20061;-65
2023/09/15 10:27:14;;;;;;;5.68;4.07;;;20.50;99.90;;;;;;5000585;28;20058;-64
2023/09/15 10:29:44;;;;;;;7.13;4.40;;;20.40;99.90;;;;;;4993166;28;20046;-65
2023/09/15 10:32:19;;;;;;;7.35;4.68;;;20.50;99.90;;;;;;4993926;28;20046;-64
2023/09/15 10:34:47;;;;;;;6.20;4.18;;;20.50;99.90;;;;;;4993589;28;20479;-65
2023/09/15 10:37:13;;;;;;;6.95;4.50;;;20.60;99.90;;;;;;5004773;28;20138;-65
2023/09/15 10:39:42;;;;;;;7.35;4.88;;;20.60;99.90;;;;;;5012718;28;20046;-64
2023/09/15 10:42:15;;;;;;;6.85;5.00;;;20.50;99.90;;;;;;5013095;28;20060;-65
2023/09/15 10:44:42;;;;;;;6.88;4.15;;;20.50;99.90;;;;;;5012696;28;20446;-64
2023/09/15 10:47:17;;;;;;;7.65;4.65;;;20.50;99.90;;;;;;5000810;28;20105;-65
2023/09/15 10:49:54;;;;;;;6.53;4.40;;;20.60;99.90;;;;;;4992681;28;20486;-64
2023/09/15 10:52:34;;;;;;;7.40;4.75;;;20.70;99.90;;;;;;4993383;28;20047;-64
2023/09/15 10:55:01;;;;;;;7.88;4.90;;;20.80;99.90;;;;;;4993223;28;20042;-65
2023/09/15 10:57:27;;;;;;;5.68;4.68;;;20.80;99.90;;;;;;5006456;28;20116;-65
2023/09/15 10:59:57;;;;;;;7.93;4.75;;;20.80;99.90;;;;;;5012785;28;20161;-65
2023/09/15 11:02:25;;;;;;;8.68;4.85;;;20.80;99.90;;;;;;5004293;28;20124;-64
2023/09/15 11:04:52;;;;;;;6.10;4.90;;;20.90;99.90;;;;;;4992865;28;20068;-64
2023/09/15 11:07:19;;;;;;;6.88;4.28;;;20.90;99.90;;;;;;5004490;28;20393;-65
2023/09/15 11:09:45;;;;;;;6.45;4.53;;;21.00;99.90;;;;;;5012272;28;20046;-64
2023/09/15 11:12:12;;;;;;;8.27;4.35;;;21.20;99.90;;;;;;5012377;28;20050;-64
2023/09/15 11:14:39;;;;;;;7.53;3.80;;;21.10;99.90;;;;;;5012120;28;20374;-64
2023/09/15 11:17:05;;;;;;;7.95;5.03;;;21.30;99.90;;;;;;5001281;28;20058;-64
2023/09/15 11:19:33;;;;;;;7.18;5.10;;;21.40;99.90;;;;;;4991983;28;20051;-64
2023/09/15 11:22:03;;;;;;;7.60;4.93;;;21.50;99.90;;;;;;4992810;28;20116;-64
2023/09/15 11:24:31;;;;;;;9.05;5.03;;;21.60;99.90;;;;;;4992848;28;20058;-62
2023/09/15 11:27:00;;;;;;;8.88;4.65;;;21.60;99.90;;;;;;5002208;28;20066;-65
2023/09/15 11:29:29;;;;;;;7.68;4.65;;;21.70;99.90;;;;;;5011356;28;20508;-65
2023/09/15 11:31:58;;;;;;;6.05;4.50;;;21.70;99.90;;;;;;5012302;28;20104;-62
2023/09/15 11:34:25;;;;;;;10.38;4.18;;;21.80;99.90;;;;;;5011812;28;20054;-64
2023/09/15 11:36:58;;;;;;;7.32;4.10;;;21.80;99.90;;;;;;5001048;28;20054;-64
2023/09/15 11:39:25;;;;;;;6.03;3.85;;;21.80;99.90;;;;;;4991101;28;20050;-64
2023/09/15 11:41:54;;;;;;;5.93;4.22;;;21.80;99.90;;;;;;4991809;28;20050;-64
2023/09/15 11:44:29;;;;;;;5.88;3.92;;;21.70;99.90;;;;;;4989063;28;20120;-64
2023/09/15 11:47:00;;;;;;;6.07;3.67;;;21.60;99.90;;;;;;4990358;28;20038;-65
2023/09/15 11:49:27;;;;;;;5.13;3.50;;;21.70;99.90;;;;;;4990412;28;20069;-65
2023/09/15 11:51:55;;;;;;;6.68;3.90;;;21.70;99.90;;;;;;4990922;28;20115;-65
2023/09/15 11:54:22;;;;;;;6.38;3.53;;;21.70;99.90;;;;;;4991843;28;20054;-65
2023/09/15 11:56:49;;;;;;;8.25;4.20;;;21.80;99.90;;;;;;4999840;28;20042;-65
2023/09/15 11:59:15;;;;;;;5.45;4.13;;;21.60;99.90;;;;;;5011274;28;20061;-65
2023/09/15 12:01:42;;;;;;;7.03;3.90;;;21.60;99.90;;;;;;5008759;28;20056;-65
2023/09/15 12:04:09;;;;;;;5.53;3.40;;;21.40;99.90;;;;;;4992204;28;20064;-65
2023/09/15 12:06:36;;;;;;;6.93;3.53;;;21.40;99.90;;;;;;4980778;28;20178;-65
2023/09/15 12:09:03;;;;;;;4.88;3.13;;;21.40;99.90;;;;;;5011230;28;20050;-66
2023/09/15 12:11:29;;;;;;;9.48;3.30;;;21.50;99.90;;;;;;4997546;28;20395;-65
2023/09/15 12:13:56;;;;;;;4.90;3.17;;;21.60;99.90;;;;;;4991815;28;20418;-65
2023/09/15 12:16:28;;;;;;;5.22;3.35;;;21.70;99.90;;;;;;4992419;28;20038;-64
2023/09/15 12:18:55;;;;;;;6.15;3.45;;;21.80;99.90;;;;;;4991540;28;20050;-64
2023/09/15 12:21:25;;;;;;;6.93;3.97;;;21.80;99.90;;;;;;4991884;28;20050;-65
2023/09/15 12:23:54;;;;;;;4.85;3.78;;;21.90;99.90;;;;;;4974413;28;20125;-64
2023/09/15 12:26:21;;;;;;;6.93;3.30;;;21.90;99.90;;;;;;4995424;28;20049;-65
2023/09/15 12:28:48;;;;;;;6.35;3.33;;;21.80;99.90;;;;;;4994639;28;20116;-65
2023/09/15 12:31:16;;;;;;;5.95;3.13;;;21.80;99.90;;;;;;4990326;28;20060;-64
2023/09/15 12:33:44;;;;;;;6.50;3.47;;;21.90;99.90;;;;;;4989810;28;20081;-64
2023/09/15 12:36:12;;;;;;;8.45;3.72;;;21.80;99.90;;;;;;4990879;28;20224;-64
2023/09/15 12:38:39;;;;;;;11.48;3.83;;;21.80;99.90;;;;;;4991126;28;20446;-64
2023/09/15 12:41:06;;;;;;;6.95;3.13;;;21.80;99.90;;;;;;4991661;28;20180;-65
2023/09/15 12:43:33;;;;;;;5.20;2.83;;;21.80;99.90;;;;;;4990125;28;20375;-65
2023/09/15 12:46:00;;;;;;;5.80;3.45;;;21.80;99.90;;;;;;4990778;28;20072;-64